createdAt,value
2022-08-24T00:02:30.433Z,14.43
2022-08-24T00:04:59.983Z,13.85
2022-08-24T00:07:30.085Z,13.57
2022-08-24T00:10:00.500Z,15.43
2022-08-24T00:12:31.905Z,14.52
2022-08-24T00:15:03.941Z,14.13
2022-08-24T00:17:34.201Z,14.02
2022-08-24T00:20:04.914Z,13.35
2022-08-24T00:22:34.455Z,16.02
2022-08-24T00:25:04.086Z,15.88
2022-08-24T00:27:34.444Z,15.13
2022-08-24T00:30:12.888Z,15.87
2022-08-24T00:32:42.859Z,16.23
2022-08-24T00:35:13.884Z,15.23
2022-08-24T00:37:44.073Z,16.77
2022-08-24T00:40:16.283Z,16.02
2022-08-24T00:42:46.384Z,17.38
2022-08-24T00:45:19.351Z,16.98
2022-08-24T00:47:53.916Z,17.77
2022-08-24T00:50:28.757Z,17.73
2022-08-24T00:53:02.390Z,17.55
2022-08-24T00:55:35.029Z,17.60
2022-08-24T00:58:08.043Z,18.85
2022-08-24T01:00:48.787Z,17.52
2022-08-24T01:03:19.537Z,16.52
2022-08-24T01:08:18.604Z,16.80
2022-08-24T01:10:51.512Z,16.80
2022-08-24T01:13:21.686Z,17.13
2022-08-24T01:15:56.284Z,17.23
2022-08-24T01:18:45.834Z,18.63
2022-08-24T01:21:21.991Z,17.63
2022-08-24T01:23:54.935Z,19.05
2022-08-24T01:26:30.170Z,19.15
2022-08-24T01:29:05.133Z,18.65
2022-08-24T01:31:36.711Z,18.02
2022-08-24T01:34:07.168Z,17.08
2022-08-24T01:36:39.982Z,19.17
2022-08-24T01:39:16.955Z,18.17
2022-08-24T01:41:46.824Z,18.65
2022-08-24T01:44:16.644Z,18.50
2022-08-24T01:46:46.696Z,17.83
2022-08-24T01:49:18.124Z,16.67
2022-08-24T01:51:48.054Z,17.88
2022-08-24T01:59:19.689Z,15.85
2022-08-24T02:01:53.785Z,15.43
2022-08-24T02:04:23.893Z,16.45
2022-08-24T02:06:54.430Z,16.17
2022-08-24T02:09:25.703Z,15.77
2022-08-24T02:12:00.656Z,15.55
2022-08-24T02:14:32.962Z,14.53
2022-08-24T02:17:04.953Z,16.55
2022-08-24T02:19:35.304Z,14.82
2022-08-24T02:22:06.510Z,15.67
2022-08-24T02:24:37.856Z,15.52
2022-08-24T02:27:08.813Z,15.40
2022-08-24T02:29:39.016Z,15.52
2022-08-24T02:32:08.829Z,15.73
2022-08-24T02:34:38.514Z,15.13
2022-08-24T02:37:08.570Z,15.75
2022-08-24T02:39:39.389Z,15.63
2022-08-24T02:42:09.838Z,15.93
2022-08-24T02:44:39.384Z,16.08
2022-08-24T02:47:10.218Z,15.90
2022-08-24T02:49:40.625Z,16.45
2022-08-24T02:52:10.169Z,16.47
2022-08-24T02:54:42.413Z,16.85
2022-08-24T02:57:12.177Z,18.42
2022-08-24T02:59:41.711Z,17.23
2022-08-24T03:02:11.314Z,15.80
2022-08-24T03:04:41.525Z,16.50
2022-08-24T03:07:10.910Z,16.13
2022-08-24T03:09:41.894Z,16.48
2022-08-24T03:12:11.826Z,15.68
2022-08-24T03:14:41.182Z,16.30
2022-08-24T03:17:10.485Z,16.05
2022-08-24T03:19:40.662Z,16.92
2022-08-24T03:22:10.249Z,15.73
2022-08-24T03:24:41.500Z,15.75
2022-08-24T03:27:12.121Z,16.02
2022-08-24T03:29:42.447Z,15.77
2022-08-24T03:32:12.382Z,16.00
2022-08-24T03:34:42.030Z,14.88
2022-08-24T03:37:11.774Z,13.97
2022-08-24T03:39:43.617Z,15.02
2022-08-24T03:42:13.054Z,15.60
2022-08-24T03:44:42.846Z,14.30
2022-08-24T03:47:13.716Z,17.60
2022-08-24T03:49:43.450Z,15.45
2022-08-24T03:52:13.353Z,15.90
2022-08-24T03:54:44.346Z,15.07
2022-08-24T03:57:14.264Z,14.25
2022-08-24T03:59:46.784Z,14.10
2022-08-24T04:02:17.759Z,12.30
2022-08-24T04:04:47.474Z,14.35
2022-08-24T04:07:17.691Z,14.15
2022-08-24T04:14:47.505Z,12.85
2022-08-24T04:17:16.857Z,13.70
2022-08-24T04:19:58.238Z,12.85
2022-08-24T04:22:32.106Z,14.38
2022-08-24T04:25:08.970Z,14.40
2022-08-24T04:27:40.701Z,14.85
2022-08-24T04:30:14.241Z,14.82
2022-08-24T04:32:44.670Z,14.20
2022-08-24T04:35:14.210Z,14.90
2022-08-24T04:37:43.549Z,15.55
2022-08-24T04:40:15.317Z,15.97
2022-08-24T04:42:48.953Z,16.27
2022-08-24T04:45:19.252Z,16.88
2022-08-24T04:47:49.022Z,18.80
2022-08-24T04:50:18.677Z,17.73
2022-08-24T04:52:48.907Z,16.88
2022-08-24T04:55:20.632Z,17.33
2022-08-24T04:57:50.234Z,16.13
2022-08-24T05:00:20.353Z,16.50
2022-08-24T05:02:50.052Z,15.80
2022-08-24T05:05:20.023Z,14.95
2022-08-24T05:07:53.384Z,16.95
2022-08-24T05:10:33.487Z,15.65
2022-08-24T05:13:03.625Z,15.30
2022-08-24T05:15:33.914Z,16.33
2022-08-24T05:18:03.517Z,15.07
2022-08-24T05:20:32.985Z,14.57
2022-08-24T05:23:05.074Z,15.20
2022-08-24T05:25:36.145Z,16.17
2022-08-24T05:28:06.601Z,14.48
2022-08-24T05:30:41.862Z,14.80
2022-08-24T05:33:13.068Z,14.73
2022-08-24T05:35:44.457Z,14.55
2022-08-24T05:38:14.621Z,14.00
2022-08-24T05:40:45.808Z,14.68
2022-08-24T05:43:15.996Z,13.52
2022-08-24T05:45:45.653Z,12.57
2022-08-24T05:48:14.988Z,13.17
2022-08-24T05:50:44.945Z,13.40
2022-08-24T05:53:14.556Z,11.88
2022-08-24T05:55:45.465Z,12.20
2022-08-24T05:58:22.900Z,12.02
2022-08-24T06:01:00.880Z,13.63
2022-08-24T06:03:30.649Z,11.95
2022-08-24T06:05:59.966Z,10.52
2022-08-24T06:08:30.530Z,10.88
2022-08-24T06:11:03.006Z,10.38
2022-08-24T06:13:34.438Z,10.10
2022-08-24T06:16:20.766Z,10.50
2022-08-24T06:18:51.981Z,10.40
2022-08-24T06:21:25.929Z,8.75
2022-08-24T06:23:58.837Z,8.43
2022-08-24T06:26:49.099Z,8.55
2022-08-24T06:29:20.373Z,8.55
2022-08-24T06:31:54.268Z,7.72
2022-08-24T06:34:26.400Z,8.52
2022-08-24T06:36:56.623Z,8.43
2022-08-24T06:39:26.283Z,9.52
2022-08-24T06:41:57.425Z,7.70
2022-08-24T06:44:27.773Z,7.75
2022-08-24T06:46:57.127Z,7.65
2022-08-24T06:49:26.733Z,7.40
2022-08-24T06:51:57.046Z,8.00
2022-08-24T06:54:26.737Z,7.50
2022-08-24T06:56:58.908Z,8.68
2022-08-24T06:59:29.651Z,7.55
2022-08-24T07:02:00.121Z,9.15
2022-08-24T07:04:30.160Z,9.02
2022-08-24T07:06:59.507Z,8.05
2022-08-24T07:09:29.345Z,7.23
2022-08-24T07:16:59.080Z,7.45
2022-08-24T07:19:28.799Z,8.95
2022-08-24T07:21:59.251Z,6.68
2022-08-24T07:24:29.109Z,6.72
2022-08-24T07:27:00.444Z,6.68
2022-08-24T07:29:47.257Z,6.97
2022-08-24T07:32:19.712Z,7.00
2022-08-24T07:34:49.485Z,7.13
2022-08-24T07:37:18.954Z,6.82
2022-08-24T07:39:48.946Z,6.07
2022-08-24T07:42:29.483Z,6.70
2022-08-24T07:45:01.785Z,6.53
2022-08-24T07:47:43.035Z,7.60
2022-08-24T07:50:14.918Z,6.38
2022-08-24T07:52:44.430Z,7.20
2022-08-24T07:55:16.048Z,7.53
2022-08-24T07:57:47.334Z,6.72
2022-08-24T08:00:19.937Z,5.60
2022-08-24T08:02:51.153Z,5.43
2022-08-24T08:05:23.544Z,6.55
2022-08-24T08:07:54.094Z,6.55
2022-08-24T08:15:26.303Z,5.40
2022-08-24T08:17:57.236Z,6.07
2022-08-24T08:20:26.932Z,6.75
2022-08-24T08:23:13.749Z,4.97
2022-08-24T08:25:47.319Z,5.47
2022-08-24T08:28:25.716Z,5.38
2022-08-24T08:30:56.671Z,6.03
2022-08-24T08:36:05.085Z,5.93
2022-08-24T08:38:35.173Z,4.50
2022-08-24T08:41:25.994Z,5.32
2022-08-24T08:44:03.373Z,5.63
2022-08-24T08:46:44.944Z,4.93
2022-08-24T08:49:36.347Z,5.55
2022-08-24T08:52:48.148Z,5.07
2022-08-24T08:55:29.313Z,5.70
2022-08-24T08:58:12.241Z,4.70
2022-08-24T09:01:01.374Z,4.85
2022-08-24T09:03:52.858Z,4.68
2022-08-24T09:06:50.401Z,4.93
2022-08-24T09:09:35.262Z,5.93
2022-08-24T09:12:15.902Z,5.00
2022-08-24T09:15:11.631Z,5.03
2022-08-24T09:17:59.344Z,5.10
2022-08-24T09:20:57.932Z,5.10
2022-08-24T09:23:38.398Z,5.28
2022-08-24T09:26:18.567Z,6.30
2022-08-24T09:29:01.338Z,4.60
2022-08-24T09:31:44.016Z,5.57
2022-08-24T09:34:37.505Z,5.32
2022-08-24T09:37:27.885Z,5.00
2022-08-24T09:40:05.209Z,5.10
2022-08-24T09:43:17.028Z,5.13
2022-08-24T09:46:14.354Z,5.63
2022-08-24T09:49:22.998Z,5.63
2022-08-24T09:52:19.086Z,4.82
2022-08-24T09:55:28.220Z,5.28
2022-08-24T09:58:11.740Z,4.75
2022-08-24T10:00:47.620Z,4.80
2022-08-24T10:03:37.677Z,5.38
2022-08-24T10:06:33.513Z,4.28
2022-08-24T10:09:40.446Z,4.30
2022-08-24T10:12:22.301Z,4.72
2022-08-24T10:15:00.723Z,4.43
2022-08-24T10:17:44.745Z,4.70
2022-08-24T10:20:25.140Z,3.60
2022-08-24T10:23:12.385Z,5.50
2022-08-24T10:25:53.334Z,4.45
2022-08-24T10:29:07.455Z,4.40
2022-08-24T10:31:50.580Z,4.60
2022-08-24T10:34:36.812Z,4.35
2022-08-24T10:37:23.053Z,5.10
2022-08-24T10:40:22.013Z,5.55
2022-08-24T10:43:37.761Z,4.40
2022-08-24T10:46:41.226Z,5.78
2022-08-24T10:49:46.062Z,5.68
2022-08-24T10:52:55.629Z,4.25
2022-08-24T10:55:27.573Z,6.38
2022-08-24T10:58:34.146Z,5.40
2022-08-24T11:01:16.938Z,5.22
2022-08-24T11:03:56.905Z,4.50
2022-08-24T11:06:28.210Z,4.13
2022-08-24T11:09:01.861Z,4.97
2022-08-24T11:11:35.929Z,4.10
2022-08-24T11:14:26.882Z,5.10
2022-08-24T11:17:02.017Z,4.35
2022-08-24T11:19:36.835Z,4.30
2022-08-24T11:22:09.369Z,5.10
2022-08-24T11:24:45.525Z,4.28
2022-08-24T11:27:27.909Z,5.95
2022-08-24T11:30:08.890Z,5.85
2022-08-24T11:32:43.040Z,4.93
2022-08-24T11:35:27.460Z,3.90
2022-08-24T11:37:59.780Z,4.25
2022-08-24T11:40:32.461Z,4.43
2022-08-24T11:43:23.566Z,4.00
2022-08-24T11:46:11.761Z,4.55
2022-08-24T11:48:55.034Z,3.75
2022-08-24T11:51:36.406Z,3.63
2022-08-24T11:54:11.185Z,4.65
2022-08-24T11:56:48.074Z,2.75
2022-08-24T11:59:26.479Z,3.03
2022-08-24T12:02:02.166Z,2.90
2022-08-24T12:04:45.966Z,3.03
2022-08-24T12:07:28.229Z,3.47
2022-08-24T12:10:13.371Z,3.20
2022-08-24T12:12:51.401Z,2.65
2022-08-24T12:15:29.005Z,2.30
2022-08-24T12:18:05.727Z,4.07
2022-08-24T12:20:40.778Z,2.75
2022-08-24T12:23:16.881Z,1.92
2022-08-24T12:26:04.928Z,2.38
2022-08-24T12:28:39.680Z,2.50
2022-08-24T12:31:19.258Z,2.38
2022-08-24T12:33:54.445Z,3.55
2022-08-24T12:36:30.019Z,2.60
2022-08-24T12:39:10.696Z,2.72
2022-08-24T12:41:50.894Z,2.50
2022-08-24T12:44:25.494Z,2.42
2022-08-24T12:46:56.940Z,2.47
2022-08-24T12:49:34.309Z,2.50
2022-08-24T12:52:21.089Z,2.15
2022-08-24T12:55:13.432Z,2.25
2022-08-24T12:58:01.656Z,2.33
2022-08-24T13:00:39.522Z,2.20
2022-08-24T13:03:24.930Z,2.25
2022-08-24T13:06:00.285Z,2.58
2022-08-24T13:08:38.583Z,1.80
2022-08-24T13:11:14.797Z,2.28
2022-08-24T13:14:05.994Z,2.60
2022-08-24T13:16:52.205Z,2.22
2022-08-24T13:19:35.968Z,2.30
2022-08-24T13:22:47.584Z,1.88
2022-08-24T13:25:45.031Z,1.80
2022-08-24T13:28:34.192Z,2.10
2022-08-24T13:31:24.724Z,1.60
2022-08-24T13:33:58.794Z,2.03
2022-08-24T13:36:57.086Z,2.55
2022-08-24T13:40:09.844Z,2.22
2022-08-24T13:43:14.321Z,2.13
2022-08-24T13:45:51.977Z,1.48
2022-08-24T13:48:29.866Z,1.90
2022-08-24T13:51:22.421Z,2.13
2022-08-24T13:54:09.989Z,2.28
2022-08-24T13:57:21.994Z,2.28
2022-08-24T14:00:06.098Z,2.22
2022-08-24T14:02:49.865Z,2.92
2022-08-24T14:05:31.418Z,2.40
2022-08-24T14:08:23.804Z,2.47
2022-08-24T14:11:01.742Z,2.72
2022-08-24T14:13:49.641Z,3.60
2022-08-24T14:17:05.482Z,2.40
2022-08-24T14:19:46.093Z,3.40
2022-08-24T14:22:25.666Z,2.90
2022-08-24T14:25:06.105Z,3.70
2022-08-24T14:30:47.271Z,3.30
2022-08-24T14:33:32.406Z,3.45
2022-08-24T14:36:19.566Z,3.03
2022-08-24T14:39:01.044Z,3.13
2022-08-24T14:41:51.382Z,2.92
2022-08-24T14:44:40.180Z,3.08
2022-08-24T14:47:22.897Z,2.78
2022-08-24T14:50:09.164Z,3.33
2022-08-24T14:53:11.134Z,2.88
2022-08-24T14:58:23.782Z,3.67
2022-08-24T15:01:26.189Z,2.75
2022-08-24T15:04:14.605Z,3.72
2022-08-24T15:06:48.924Z,3.00
2022-08-24T15:09:28.586Z,3.45
2022-08-24T15:12:05.018Z,2.92
2022-08-24T15:14:43.078Z,3.47
2022-08-24T15:17:15.478Z,3.67
2022-08-24T15:19:53.123Z,3.50
2022-08-24T15:22:30.820Z,4.00
2022-08-24T15:25:07.028Z,4.25
2022-08-24T15:27:44.705Z,3.00
2022-08-24T15:30:23.928Z,3.83
2022-08-24T15:32:56.517Z,3.20
2022-08-24T15:35:31.441Z,3.75
2022-08-24T15:38:18.872Z,3.50
2022-08-24T15:40:50.940Z,3.55
2022-08-24T15:43:21.331Z,3.63
2022-08-24T15:45:52.745Z,4.07
2022-08-24T15:48:26.061Z,3.78
2022-08-24T15:50:57.966Z,3.70
2022-08-24T15:53:32.837Z,3.97
2022-08-24T15:56:27.729Z,3.85
2022-08-24T15:59:07.437Z,3.10
2022-08-24T16:04:45.218Z,3.22
2022-08-24T16:07:26.668Z,3.65
2022-08-24T16:10:14.916Z,3.55
2022-08-24T16:12:44.629Z,3.20
2022-08-24T16:15:17.668Z,3.75
2022-08-24T16:17:51.407Z,3.38
2022-08-24T16:20:33.461Z,4.70
2022-08-24T16:23:07.923Z,3.05
2022-08-24T16:25:43.242Z,2.78
2022-08-24T16:28:36.191Z,3.25
2022-08-24T16:31:08.324Z,3.28
2022-08-24T16:33:43.724Z,4.55
2022-08-24T16:36:18.256Z,2.70
2022-08-24T16:38:51.929Z,4.63
2022-08-24T16:41:24.178Z,3.28
2022-08-24T16:43:54.073Z,3.20
2022-08-24T16:46:25.898Z,3.15
2022-08-24T16:48:56.240Z,3.28
2022-08-24T16:51:25.898Z,3.88
2022-08-24T16:53:57.247Z,3.78
2022-08-24T16:56:28.394Z,4.57
2022-08-24T16:58:58.158Z,3.67
2022-08-24T17:01:27.978Z,4.05
2022-08-24T17:03:57.537Z,3.53
2022-08-24T17:06:27.057Z,4.63
2022-08-24T17:08:59.557Z,5.25
2022-08-24T17:11:29.402Z,4.00
2022-08-24T17:13:59.173Z,4.60
2022-08-24T17:16:29.345Z,4.23
2022-08-24T17:19:01.433Z,3.80
2022-08-24T17:21:31.234Z,4.25
2022-08-24T17:24:02.320Z,4.35
2022-08-24T17:26:33.442Z,4.38
2022-08-24T17:29:06.416Z,4.13
2022-08-24T17:31:36.437Z,3.88
2022-08-24T17:34:06.966Z,4.20
2022-08-24T17:36:37.717Z,4.60
2022-08-24T17:41:38.176Z,3.45
2022-08-24T17:44:10.340Z,4.43
2022-08-24T17:46:41.398Z,4.20
2022-08-24T17:49:13.454Z,3.88
2022-08-24T17:51:43.193Z,4.53
2022-08-24T17:54:14.157Z,4.77
2022-08-24T17:56:47.043Z,5.63
2022-08-24T17:59:23.835Z,5.13
2022-08-24T18:01:55.655Z,4.15
2022-08-24T18:04:27.846Z,5.28
2022-08-24T18:06:59.260Z,4.65
2022-08-24T18:09:35.386Z,4.78
2022-08-24T18:12:08.787Z,4.25
2022-08-24T18:14:38.689Z,5.18
2022-08-24T18:17:12.001Z,5.40
2022-08-24T18:19:42.273Z,4.22
2022-08-24T18:22:12.525Z,4.53
2022-08-24T18:24:44.814Z,4.80
2022-08-24T18:27:19.663Z,5.63
2022-08-24T18:29:55.051Z,5.15
2022-08-24T18:32:30.884Z,4.70
2022-08-24T18:35:00.740Z,5.05
2022-08-24T18:37:31.010Z,5.22
2022-08-24T18:40:02.017Z,4.63
2022-08-24T18:42:33.037Z,4.68
2022-08-24T18:45:03.221Z,5.32
2022-08-24T18:47:33.421Z,4.75
2022-08-24T18:50:03.005Z,5.03
2022-08-24T18:52:32.777Z,4.83
2022-08-24T18:55:04.546Z,4.82
2022-08-24T18:57:34.151Z,5.55
2022-08-24T19:00:04.581Z,4.22
2022-08-24T19:02:34.455Z,5.68
2022-08-24T19:05:08.403Z,4.80
2022-08-24T19:07:41.492Z,5.53
2022-08-24T19:10:14.722Z,5.10
2022-08-24T19:12:47.158Z,5.40
2022-08-24T19:15:32.109Z,4.85
2022-08-24T19:18:11.503Z,4.45
2022-08-24T19:20:47.411Z,4.32
2022-08-24T19:23:22.620Z,4.93
2022-08-24T19:25:54.821Z,5.45
2022-08-24T19:28:25.565Z,5.10
2022-08-24T19:30:57.973Z,6.70
2022-08-24T19:33:31.371Z,4.95
2022-08-24T19:36:01.826Z,4.88
2022-08-24T19:38:32.227Z,5.18
2022-08-24T19:41:11.789Z,4.75
2022-08-24T19:43:57.514Z,4.97
2022-08-24T19:46:27.010Z,5.00
2022-08-24T19:48:57.355Z,5.65
2022-08-24T19:51:27.343Z,5.10
2022-08-24T19:53:57.002Z,5.53
2022-08-24T19:56:28.610Z,5.72
2022-08-24T19:59:02.968Z,5.40
2022-08-24T20:01:35.322Z,5.78
2022-08-24T20:04:07.019Z,5.20
2022-08-24T20:06:38.877Z,5.53
2022-08-24T20:09:08.464Z,5.72
2022-08-24T20:11:40.663Z,7.95
2022-08-24T20:14:10.668Z,7.00
2022-08-24T20:16:43.141Z,6.05
2022-08-24T20:19:13.347Z,5.85
2022-08-24T20:21:43.319Z,6.28
2022-08-24T20:24:12.852Z,6.22
2022-08-24T20:26:46.797Z,6.63
2022-08-24T20:29:17.253Z,6.25
2022-08-24T20:31:52.887Z,6.97
2022-08-24T20:34:24.236Z,6.80
2022-08-24T20:36:54.100Z,7.18
2022-08-24T20:41:57.211Z,7.28
2022-08-24T20:44:26.958Z,7.85
2022-08-24T20:46:57.222Z,9.10
2022-08-24T20:49:28.466Z,8.52
2022-08-24T20:51:58.699Z,8.30
2022-08-24T20:54:28.178Z,7.50
2022-08-24T20:56:59.165Z,7.60
2022-08-24T20:59:29.372Z,7.88
2022-08-24T21:02:00.641Z,7.40
2022-08-24T21:04:30.979Z,7.05
2022-08-24T21:07:00.653Z,7.65
2022-08-24T21:09:30.153Z,8.87
2022-08-24T21:12:01.846Z,8.10
2022-08-24T21:14:31.321Z,8.18
2022-08-24T21:17:01.313Z,7.80
2022-08-24T21:19:31.569Z,7.25
2022-08-24T21:22:01.352Z,7.18
2022-08-24T21:24:31.020Z,7.38
2022-08-24T21:27:02.937Z,7.22
2022-08-24T21:29:34.071Z,8.90
2022-08-24T21:32:20.465Z,7.80
2022-08-24T21:34:50.072Z,7.07
2022-08-24T21:37:21.050Z,7.60
2022-08-24T21:39:51.068Z,6.68
2022-08-24T21:42:22.110Z,7.13
2022-08-24T21:44:53.158Z,7.38
2022-08-24T21:47:22.558Z,6.32
2022-08-24T21:49:51.887Z,6.53
2022-08-24T21:52:22.029Z,6.20
2022-08-24T21:54:52.421Z,6.25
2022-08-24T21:57:23.408Z,7.00
2022-08-24T21:59:53.673Z,7.03
2022-08-24T22:02:23.209Z,6.50
2022-08-24T22:04:56.741Z,6.28
2022-08-24T22:07:27.417Z,6.45
2022-08-24T22:09:56.743Z,6.25
2022-08-24T22:12:28.014Z,7.63
2022-08-24T22:14:58.109Z,5.85
2022-08-24T22:17:27.586Z,6.40
2022-08-24T22:19:57.139Z,6.32
2022-08-24T22:22:28.149Z,7.10
2022-08-24T22:24:57.456Z,6.05
2022-08-24T22:27:28.421Z,6.40
2022-08-24T22:29:59.170Z,6.90
2022-08-24T22:34:57.787Z,7.20
2022-08-24T22:37:27.872Z,7.90
2022-08-24T22:39:57.436Z,7.20
2022-08-24T22:42:28.610Z,7.93
2022-08-24T22:45:00.002Z,8.40
2022-08-24T22:47:29.929Z,9.65
2022-08-24T22:50:00.023Z,8.77
2022-08-24T22:52:29.489Z,9.40
2022-08-24T22:54:59.116Z,9.02
2022-08-24T22:57:30.654Z,9.55
2022-08-24T23:00:00.943Z,9.02
2022-08-24T23:02:31.345Z,8.27
2022-08-24T23:05:00.673Z,11.27
2022-08-24T23:07:30.132Z,9.18
2022-08-24T23:10:00.172Z,8.63
2022-08-24T23:12:31.198Z,9.27
2022-08-24T23:15:01.585Z,9.85
2022-08-24T23:17:31.015Z,8.80
2022-08-24T23:20:02.177Z,9.13
2022-08-24T23:22:34.880Z,7.93
2022-08-24T23:25:04.604Z,8.20
2022-08-24T23:27:38.471Z,7.50
2022-08-24T23:30:10.006Z,7.85
2022-08-24T23:32:40.366Z,7.80
2022-08-24T23:35:10.680Z,8.43
2022-08-24T23:37:40.151Z,8.45
2022-08-24T23:40:11.463Z,7.10
2022-08-24T23:42:42.530Z,6.80
2022-08-24T23:45:13.117Z,6.82
2022-08-24T23:50:12.797Z,6.78
2022-08-24T23:55:21.268Z,6.82
2022-08-24T23:57:54.952Z,6.53
